Time;durP1;ratioP1;P1;durP2;ratioP2;P2;SDS_P1;SDS_P2;PMS_P1;PMS_P2;Temp;Humidity;BMP_temperature;BMP_pressure;BME280_temperature;BME280_humidity;BME280_pressure;Samples;Min_cycle;Max_cycle;Signal;HPM_P1;HPM_P2
2022/12/30 00:02:14;;;;;;;8.65;3.08;;;;;;;7.86;100.00;100088.13;5073614;28;20249;-76
2022/12/30 00:04:40;;;;;;;9.60;2.75;;;;;;;7.86;100.00;100088.13;5069631;28;20201;-76
2022/12/30 00:07:07;;;;;;;7.47;2.00;;;;;;;7.77;100.00;100083.13;5069529;28;20204;-73
2022/12/30 00:09:35;;;;;;;6.47;2.20;;;;;;;7.81;100.00;100082.06;5070631;28;20229;-74
2022/12/30 00:33:06;;;;;;;10.77;2.33;;;;;;;7.77;100.00;100084.00;5069877;28;20221;-75
2022/12/30 00:34:12;;;;;;;8.80;2.60;;;;;;;7.47;100.00;100137.81;4983255;28;20340;-75
2022/12/30 00:36:39;;;;;;;7.50;2.30;;;;;;;7.39;100.00;100136.34;4982624;28;20295;-74
2022/12/30 00:39:06;;;;;;;12.13;3.22;;;;;;;7.34;100.00;100146.38;4982430;28;20202;-75
2022/12/30 00:44:18;;;;;;;14.70;3.15;;;;;;;7.23;100.00;100155.66;4985195;28;20258;-77
2022/12/30 00:46:45;;;;;;;7.80;2.70;;;;;;;7.27;100.00;100153.75;4985257;28;20295;-74
2022/12/30 00:57:09;;;;;;;6.25;2.25;;;;;;;6.98;100.00;100149.41;5098882;22;20733;-75
2022/12/30 00:59:35;;;;;;;7.18;2.20;;;;;;;6.99;100.00;100152.03;5138675;22;20261;-75
2022/12/30 01:02:03;;;;;;;7.45;2.15;;;;;;;7.04;100.00;100155.44;5015093;28;20218;-73
2022/12/30 01:04:29;;;;;;;9.18;2.28;;;;;;;7.07;100.00;100162.47;5014498;28;20574;-74
2022/12/30 01:06:57;;;;;;;5.85;2.42;;;;;;;7.07;100.00;100167.84;5014367;28;20245;-75
2022/12/30 01:09:23;;;;;;;5.97;1.98;;;;;;;7.04;100.00;100178.66;5013534;28;20226;-73
2022/12/30 01:12:07;;;;;;;6.32;2.28;;;;;;;7.03;100.00;100175.13;5014012;28;20229;-73
2022/12/30 01:14:35;;;;;;;4.93;1.95;;;;;;;7.04;100.00;100178.66;5014850;28;20195;-74
2022/12/30 01:17:02;;;;;;;9.52;2.30;;;;;;;7.02;100.00;100169.81;5014901;28;20698;-73
2022/12/30 01:19:28;;;;;;;9.48;2.30;;;;;;;7.02;100.00;100176.03;5014037;28;20202;-73
2022/12/30 01:21:55;;;;;;;15.93;3.20;;;;;;;7.08;100.00;100183.00;5014933;28;20209;-73
2022/12/30 01:24:21;;;;;;;11.05;2.53;;;;;;;7.09;100.00;100185.59;5016367;28;20203;-73
2022/12/30 01:26:48;;;;;;;4.55;2.05;;;;;;;7.12;100.00;100179.25;5016846;28;20214;-74
2022/12/30 01:29:19;;;;;;;17.55;2.80;;;;;;;7.14;100.00;100187.25;5014435;28;20234;-73
2022/12/30 01:31:46;;;;;;;8.68;2.35;;;;;;;7.12;100.00;100189.97;5014385;28;20663;-74
2022/12/30 01:34:13;;;;;;;6.78;2.40;;;;;;;7.13;100.00;100191.72;5014011;28;20207;-73
2022/12/30 01:36:40;;;;;;;6.65;2.50;;;;;;;7.10;100.00;100202.56;5013514;28;20576;-74
2022/12/30 01:39:06;;;;;;;4.88;2.30;;;;;;;7.11;100.00;100209.66;5014571;28;20241;-73
2022/12/30 01:41:33;;;;;;;9.25;2.35;;;;;;;7.10;100.00;100211.47;5016134;28;20210;-74
2022/12/30 01:43:59;;;;;;;9.00;2.13;;;;;;;6.97;100.00;100206.59;4998569;28;20227;-73
2022/12/30 01:46:31;;;;;;;6.35;2.17;;;;;;;6.79;100.00;100211.59;5016080;28;20198;-74
2022/12/30 01:49:00;;;;;;;6.90;2.25;;;;;;;6.56;100.00;100217.72;5017771;28;20222;-73
2022/12/30 01:51:30;;;;;;;6.05;2.20;;;;;;;6.51;100.00;100218.75;5021458;28;20349;-73
2022/12/30 01:54:00;;;;;;;10.05;2.50;;;;;;;6.39;100.00;100215.53;5016804;28;20214;-74
2022/12/30 01:56:30;;;;;;;9.73;2.35;;;;;;;6.34;100.00;100214.81;5015473;28;20195;-73
2022/12/30 01:59:02;;;;;;;8.00;2.63;;;;;;;6.21;100.00;100219.66;5014504;28;20211;-73
2022/12/30 02:01:29;;;;;;;7.15;2.00;;;;;;;6.35;100.00;100219.22;5014403;28;20194;-73
2022/12/30 02:04:01;;;;;;;9.43;2.33;;;;;;;6.36;100.00;100222.81;5014354;28;20577;-74
2022/12/30 02:06:40;;;;;;;6.28;2.55;;;;;;;6.35;100.00;100227.25;5016033;28;20560;-74
2022/12/30 02:09:06;;;;;;;12.50;2.22;;;;;;;6.28;100.00;100223.03;5015294;28;20249;-75
2022/12/30 02:11:33;;;;;;;14.77;2.97;;;;;;;6.32;100.00;100230.03;4998145;28;20294;-74
2022/12/30 02:14:00;;;;;;;12.13;2.55;;;;;;;6.41;100.00;100229.75;5014620;28;20228;-73
2022/12/30 02:16:38;;;;;;;7.45;2.15;;;;;;;6.42;100.00;100227.94;5015260;28;20209;-74
2022/12/30 02:19:36;;;;;;;10.57;2.20;;;;;;;6.32;100.00;100227.38;5014360;28;20217;-74
2022/12/30 02:22:09;;;;;;;9.50;2.28;;;;;;;6.31;100.00;100232.75;5014276;28;20218;-73
2022/12/30 02:25:12;;;;;;;18.10;9.52;;;;;;;6.07;100.00;100240.59;5018072;28;20197;-73
2022/12/30 02:27:51;;;;;;;9.40;3.63;;;;;;;5.89;100.00;100247.31;5005334;28;20202;-73
2022/12/30 02:30:21;;;;;;;6.95;2.78;;;;;;;5.84;100.00;100244.78;5003987;28;20237;-73
2022/12/30 02:33:01;;;;;;;7.78;2.80;;;;;;;5.90;100.00;100249.09;4998173;28;20231;-74
2022/12/30 02:35:36;;;;;;;8.25;2.20;;;;;;;6.02;100.00;100253.25;5002346;28;20563;-73
2022/12/30 02:38:13;;;;;;;8.18;2.22;;;;;;;6.08;100.00;100244.13;5017172;28;20204;-73
2022/12/30 02:46:25;;;;;;;8.95;2.35;;;;;;;5.92;100.00;100243.69;5018270;28;20564;-74
2022/12/30 02:48:56;;;;;;;7.78;2.95;;;;;;;5.88;100.00;100242.00;5017880;28;20222;-74
2022/12/30 02:54:09;;;;;;;7.53;3.00;;;;;;;5.85;100.00;100253.66;5017366;28;20257;-74
2022/12/30 02:56:35;;;;;;;13.23;2.92;;;;;;;5.72;100.00;100254.94;5016961;28;20202;-74
2022/12/30 03:04:56;;;;;;;10.45;3.65;;;;;;;5.58;100.00;100248.16;5019691;28;20265;-74
2022/12/30 03:07:29;;;;;;;5.63;2.90;;;;;;;5.46;100.00;100250.31;4997260;28;20188;-73
2022/12/30 03:13:02;;;;;;;8.00;2.75;;;;;;;5.45;100.00;100260.13;4917275;29;20213;-73
2022/12/30 03:15:33;;;;;;;5.20;2.78;;;;;;;5.43;100.00;100265.50;4917395;29;20201;-75
2022/12/30 03:18:00;;;;;;;7.72;2.75;;;;;;;5.46;100.00;100266.34;4916944;29;20206;-73
2022/12/30 03:20:31;;;;;;;6.15;2.80;;;;;;;5.55;100.00;100272.31;4931156;29;20208;-73
2022/12/30 03:28:32;;;;;;;7.53;2.83;;;;;;;5.55;100.00;100263.41;4936566;29;20689;-73
2022/12/30 03:31:01;;;;;;;8.73;3.05;;;;;;;5.59;100.00;100271.31;4937253;29;20205;-74
2022/12/30 03:33:30;;;;;;;8.85;3.53;;;;;;;5.61;100.00;100266.81;4937655;29;20260;-73
2022/12/30 03:36:06;;;;;;;9.02;3.35;;;;;;;5.66;100.00;100274.69;4937145;29;20657;-72
2022/12/30 03:38:38;;;;;;;6.75;2.88;;;;;;;5.59;100.00;100268.63;4935715;29;20307;-74
2022/12/30 03:41:07;;;;;;;8.23;2.65;;;;;;;5.50;100.00;100258.19;4937711;29;20186;-73
2022/12/30 03:43:36;;;;;;;7.93;3.20;;;;;;;5.22;100.00;100261.59;4936829;29;20303;-73
2022/12/30 03:46:02;;;;;;;12.25;3.50;;;;;;;5.08;100.00;100261.06;4938497;29;20232;-74
2022/12/30 03:48:29;;;;;;;11.00;3.30;;;;;;;5.01;100.00;100259.47;4943295;28;20699;-74
2022/12/30 03:50:55;;;;;;;13.63;3.35;;;;;;;4.95;100.00;100262.25;5017886;28;20202;-74
2022/12/30 03:53:24;;;;;;;7.82;3.55;;;;;;;4.89;100.00;100267.78;5017486;28;20222;-74
2022/12/30 03:55:51;;;;;;;11.13;3.20;;;;;;;4.86;100.00;100266.06;5017431;28;20198;-74
2022/12/30 03:58:18;;;;;;;10.25;4.15;;;;;;;4.87;100.00;100264.25;5016379;28;20206;-74
2022/12/30 04:00:45;;;;;;;12.88;3.53;;;;;;;4.80;100.00;100255.53;5017320;28;20199;-73
2022/12/30 04:03:11;;;;;;;8.00;4.18;;;;;;;4.78;100.00;100266.22;5017651;28;20238;-74
2022/12/30 04:05:38;;;;;;;9.65;3.35;;;;;;;4.74;100.00;100266.34;5020435;28;20324;-74
2022/12/30 04:08:05;;;;;;;9.98;3.50;;;;;;;4.69;100.00;100270.91;5019351;28;20590;-74
2022/12/30 04:10:33;;;;;;;9.23;3.40;;;;;;;4.61;100.00;100268.41;5020209;28;20226;-73
2022/12/30 04:13:00;;;;;;;11.52;3.90;;;;;;;4.62;100.00;100278.19;5017121;28;20222;-74
2022/12/30 04:15:26;;;;;;;12.45;4.88;;;;;;;4.60;100.00;100288.00;5022647;28;20267;-73
2022/12/30 04:17:53;;;;;;;12.88;4.30;;;;;;;4.69;100.00;100293.13;5018937;28;20214;-74
2022/12/30 04:20:19;;;;;;;11.23;3.60;;;;;;;4.88;100.00;100292.69;5020581;28;20625;-73
2022/12/30 04:22:46;;;;;;;10.02;3.60;;;;;;;5.01;100.00;100292.34;5018440;28;20728;-73
2022/12/30 04:25:12;;;;;;;7.85;3.95;;;;;;;5.19;100.00;100288.34;5017571;28;20202;-73
2022/12/30 04:27:40;;;;;;;13.45;4.43;;;;;;;5.28;100.00;100283.72;5015355;28;20238;-73
2022/12/30 04:30:08;;;;;;;11.43;3.92;;;;;;;5.34;100.00;100275.56;5014590;28;20218;-73
2022/12/30 04:32:34;;;;;;;11.73;4.68;;;;;;;5.40;100.00;100294.06;5016757;28;20313;-74
2022/12/30 04:35:01;;;;;;;16.65;4.90;;;;;;;5.49;100.00;100292.94;5015005;28;20203;-74
2022/12/30 04:37:27;;;;;;;6.57;3.47;;;;;;;5.64;100.00;100287.22;5014067;28;20549;-74
2022/12/30 04:39:54;;;;;;;10.45;4.03;;;;;;;5.84;100.00;100294.69;5014808;28;20207;-74
2022/12/30 04:42:20;;;;;;;12.63;4.45;;;;;;;5.93;100.00;100286.41;5014917;28;20228;-74
2022/12/30 04:44:48;;;;;;;10.55;3.85;;;;;;;5.93;100.00;100281.06;5015208;28;20198;-73
2022/12/30 04:47:15;;;;;;;11.13;4.10;;;;;;;5.80;100.00;100285.00;5014694;28;20216;-74
2022/12/30 04:49:41;;;;;;;10.68;3.85;;;;;;;5.76;100.00;100286.00;5013614;28;20598;-74
2022/12/30 04:52:08;;;;;;;9.95;3.72;;;;;;;5.75;100.00;100286.94;5013229;28;20218;-74
2022/12/30 04:54:34;;;;;;;11.27;3.72;;;;;;;5.73;100.00;100284.28;5014383;28;20588;-74
2022/12/30 04:57:01;;;;;;;8.27;3.05;;;;;;;5.85;100.00;100283.94;5014426;28;20579;-73
2022/12/30 04:59:28;;;;;;;11.23;3.78;;;;;;;5.97;100.00;100287.22;5013570;28;20217;-74
2022/12/30 05:01:55;;;;;;;5.90;2.85;;;;;;;6.11;100.00;100286.84;5013905;28;20210;-73
2022/12/30 05:04:22;;;;;;;11.95;4.22;;;;;;;6.19;100.00;100271.44;5013852;28;20209;-73
2022/12/30 05:06:49;;;;;;;10.73;3.40;;;;;;;6.33;100.00;100277.28;5014077;28;20222;-74
2022/12/30 05:09:15;;;;;;;6.53;2.90;;;;;;;6.38;100.00;100271.78;5019617;28;20248;-74
2022/12/30 05:11:42;;;;;;;9.80;3.20;;;;;;;6.36;100.00;100282.53;5021204;28;20664;-73
2022/12/30 05:14:08;;;;;;;8.82;3.70;;;;;;;6.41;100.00;100283.25;5013693;28;20199;-74
2022/12/30 05:16:35;;;;;;;6.78;3.25;;;;;;;6.42;100.00;100282.34;5014896;28;20210;-74
2022/12/30 05:19:03;;;;;;;5.50;3.38;;;;;;;6.43;100.00;100286.75;5012522;28;20206;-73
2022/12/30 05:21:29;;;;;;;6.20;2.90;;;;;;;6.56;100.00;100287.28;5013710;28;20194;-74
2022/12/30 05:26:40;;;;;;;7.97;3.00;;;;;;;6.63;100.00;100290.66;5013927;28;20198;-74
2022/12/30 05:29:06;;;;;;;12.27;3.47;;;;;;;6.65;100.00;100286.13;5013590;28;20568;-73
2022/12/30 05:31:33;;;;;;;9.13;3.42;;;;;;;6.75;100.00;100290.25;5015896;28;20198;-74
2022/12/30 05:33:59;;;;;;;8.10;2.53;;;;;;;6.74;100.00;100301.00;5014283;28;20240;-75
2022/12/30 05:36:27;;;;;;;13.65;5.40;;;;;;;6.77;100.00;100298.25;5013843;28;20658;-72
2022/12/30 05:38:53;;;;;;;9.00;3.00;;;;;;;6.78;100.00;100303.53;5013277;28;20680;-75
2022/12/30 05:41:20;;;;;;;11.65;4.03;;;;;;;6.92;100.00;100303.13;5013676;28;20198;-74
2022/12/30 05:43:47;;;;;;;8.05;3.17;;;;;;;6.99;100.00;100306.47;5006872;28;20219;-73
2022/12/30 05:46:13;;;;;;;11.60;2.85;;;;;;;7.03;100.00;100303.66;4994518;28;20184;-74
2022/12/30 05:48:40;;;;;;;11.93;3.45;;;;;;;7.06;100.00;100308.03;5001349;28;20194;-73
2022/12/30 05:51:06;;;;;;;9.55;2.80;;;;;;;7.10;100.00;100309.69;5003865;28;20715;-74
2022/12/30 05:53:34;;;;;;;9.27;3.50;;;;;;;7.16;100.00;100297.88;5008279;28;20229;-74
2022/12/30 05:56:00;;;;;;;7.80;2.78;;;;;;;7.15;100.00;100296.16;5013508;28;20214;-74
2022/12/30 05:58:27;;;;;;;13.95;3.35;;;;;;;7.14;100.00;100294.38;5012675;28;20211;-74
2022/12/30 06:00:56;;;;;;;7.70;3.35;;;;;;;7.22;100.00;100308.41;5013843;28;20183;-73
2022/12/30 06:03:22;;;;;;;6.30;2.70;;;;;;;7.19;100.00;100311.16;5013444;28;20223;-75
2022/12/30 06:05:49;;;;;;;9.75;3.00;;;;;;;7.30;100.00;100312.59;5014218;28;20206;-75
2022/12/30 06:08:15;;;;;;;8.82;3.50;;;;;;;7.31;100.00;100308.09;5019595;28;20211;-74
2022/12/30 06:10:43;;;;;;;6.95;2.90;;;;;;;7.38;100.00;100311.44;5022444;28;20211;-73
2022/12/30 06:13:09;;;;;;;9.02;3.45;;;;;;;7.37;100.00;100321.28;5001276;28;20223;-74
2022/12/30 06:15:36;;;;;;;9.73;3.05;;;;;;;7.38;100.00;100317.66;5008129;28;20203;-73
2022/12/30 06:18:02;;;;;;;11.82;3.83;;;;;;;7.44;100.00;100324.59;5014604;28;20456;-73
2022/12/30 06:20:29;;;;;;;8.57;2.80;;;;;;;7.49;100.00;100326.22;5015046;28;20202;-73
2022/12/30 06:22:55;;;;;;;11.02;3.30;;;;;;;7.52;100.00;100322.56;5013963;28;20225;-73
2022/12/30 06:25:22;;;;;;;10.40;3.22;;;;;;;7.46;100.00;100323.66;5013887;28;20206;-73
2022/12/30 06:27:50;;;;;;;7.45;3.17;;;;;;;7.51;100.00;100316.34;5006785;28;20210;-72
2022/12/30 06:30:16;;;;;;;12.60;2.90;;;;;;;7.58;100.00;100313.44;5011404;28;20207;-73
2022/12/30 06:32:43;;;;;;;9.15;3.58;;;;;;;7.57;100.00;100304.50;5018639;28;20223;-74
2022/12/30 06:35:11;;;;;;;9.73;3.40;;;;;;;7.58;100.00;100306.28;5018813;28;20209;-74
2022/12/30 06:37:37;;;;;;;6.63;2.85;;;;;;;7.55;100.00;100308.16;5018643;28;20286;-74
2022/12/30 06:40:05;;;;;;;7.63;3.15;;;;;;;7.56;100.00;100313.50;5015449;28;20198;-74
2022/12/30 06:42:31;;;;;;;9.45;3.78;;;;;;;7.52;100.00;100307.34;5031250;28;20247;-75
2022/12/30 06:44:59;;;;;;;8.95;3.50;;;;;;;7.54;100.00;100301.94;5023430;28;20210;-74
2022/12/30 06:47:26;;;;;;;45.08;28.92;;;;;;;7.84;100.00;100301.78;5007454;28;20579;-72
2022/12/30 06:49:52;;;;;;;12.23;6.50;;;;;;;7.83;100.00;100310.78;5010592;28;20212;-73
2022/12/30 06:52:19;;;;;;;7.25;3.05;;;;;;;7.62;100.00;100299.88;5009113;28;20229;-72
2022/12/30 06:54:45;;;;;;;11.02;3.63;;;;;;;7.57;100.00;100303.63;5014234;28;20207;-73
2022/12/30 06:57:12;;;;;;;5.40;2.72;;;;;;;7.57;100.00;100309.00;5010338;28;20198;-73
2022/12/30 06:59:38;;;;;;;6.70;3.70;;;;;;;7.45;100.00;100294.22;5007699;28;20590;-73
2022/12/30 07:02:06;;;;;;;9.75;2.85;;;;;;;7.52;100.00;100309.16;5009940;28;20225;-72
2022/12/30 07:04:33;;;;;;;10.32;3.28;;;;;;;7.47;100.00;100308.44;5001519;28;20199;-72
2022/12/30 07:06:59;;;;;;;6.03;3.35;;;;;;;7.44;100.00;100308.53;5004172;28;20222;-72
2022/12/30 07:09:26;;;;;;;8.73;4.35;;;;;;;7.48;100.00;100315.53;5003250;28;20206;-73
2022/12/30 07:11:52;;;;;;;11.68;4.05;;;;;;;7.44;100.00;100317.47;4999385;28;20255;-70
2022/12/30 07:14:19;;;;;;;10.77;3.78;;;;;;;7.37;100.00;100315.03;5005972;28;20205;-72
2022/12/30 07:16:45;;;;;;;8.50;4.05;;;;;;;7.39;100.00;100314.03;5009844;28;20206;-74
2022/12/30 07:19:14;;;;;;;6.22;2.83;;;;;;;7.40;100.00;100318.50;5010959;28;20195;-74
2022/12/30 07:21:40;;;;;;;5.60;2.88;;;;;;;7.39;100.00;100316.72;5022859;28;20187;-72
2022/12/30 07:24:08;;;;;;;10.48;3.50;;;;;;;7.49;100.00;100322.69;5021973;28;20293;-73
2022/12/30 07:26:34;;;;;;;8.60;3.50;;;;;;;7.43;100.00;100314.84;5017386;28;20297;-73
2022/12/30 07:29:01;;;;;;;9.73;3.67;;;;;;;7.44;100.00;100311.22;5019969;28;20205;-72
2022/12/30 07:31:28;;;;;;;10.15;3.13;;;;;;;7.43;100.00;100309.47;5020432;28;20249;-72
2022/12/30 07:33:54;;;;;;;9.32;3.45;;;;;;;7.42;100.00;100316.66;5014018;28;20218;-72
2022/12/30 07:36:22;;;;;;;9.65;3.78;;;;;;;7.43;100.00;100310.34;5017878;28;20645;-72
2022/12/30 07:38:49;;;;;;;9.77;2.92;;;;;;;7.50;100.00;100313.69;4998784;28;20195;-72
2022/12/30 07:41:15;;;;;;;8.57;3.03;;;;;;;7.44;100.00;100313.91;5013445;28;20209;-73
2022/12/30 07:43:42;;;;;;;9.63;4.03;;;;;;;7.46;100.00;100318.31;5014279;28;20219;-73
2022/12/30 07:46:09;;;;;;;6.20;2.90;;;;;;;7.52;100.00;100323.44;5010959;28;20210;-72
2022/12/30 07:48:36;;;;;;;9.35;3.00;;;;;;;7.49;100.00;100317.31;5015342;28;20199;-73
2022/12/30 07:51:06;;;;;;;5.65;2.65;;;;;;;7.57;100.00;100306.31;5001658;28;20226;-73
2022/12/30 07:53:34;;;;;;;8.32;4.05;;;;;;;7.61;100.00;100302.63;5016427;28;20222;-71
2022/12/30 07:56:04;;;;;;;9.07;3.40;;;;;;;7.76;100.00;100302.09;5015698;28;20672;-73
2022/12/30 07:58:30;;;;;;;6.93;4.03;;;;;;;7.74;100.00;100303.94;5010507;28;20218;-73
2022/12/30 08:00:57;;;;;;;8.70;3.10;;;;;;;7.67;100.00;100305.09;5013505;28;20278;-74
2022/12/30 08:03:23;;;;;;;14.13;2.70;;;;;;;7.65;100.00;100307.81;5003102;28;20291;-75
2022/12/30 08:05:50;;;;;;;39.70;22.77;;;;;;;8.01;100.00;100311.94;5008580;28;20198;-70
2022/12/30 08:08:19;;;;;;;22.80;14.18;;;;;;;8.22;100.00;100319.19;5015494;28;20209;-78
2022/12/30 08:10:55;;;;;;;12.20;5.18;;;;;;;8.09;100.00;100297.28;5014144;28;20227;-75
2022/12/30 08:13:22;;;;;;;10.00;3.85;;;;;;;8.16;100.00;100300.63;5017941;28;20247;-73
2022/12/30 08:15:48;;;;;;;6.60;2.65;;;;;;;8.47;100.00;100296.81;5015848;28;20206;-75
2022/12/30 08:18:15;;;;;;;6.25;2.65;;;;;;;8.75;100.00;100294.81;5010974;28;20207;-73
2022/12/30 08:20:41;;;;;;;7.10;2.85;;;;;;;8.50;100.00;100294.00;5015607;28;20194;-75
2022/12/30 08:23:08;;;;;;;5.97;3.38;;;;;;;8.48;100.00;100294.09;5022875;28;20219;-75
2022/12/30 08:25:34;;;;;;;6.35;3.42;;;;;;;8.83;100.00;100282.91;5027357;28;20202;-72
2022/12/30 08:28:02;;;;;;;6.45;2.22;;;;;;;8.82;100.00;100290.09;5016518;28;20203;-74
2022/12/30 08:30:29;;;;;;;6.82;3.40;;;;;;;8.70;100.00;100288.75;5015680;28;20278;-75
2022/12/30 08:32:55;;;;;;;6.00;3.10;;;;;;;8.68;100.00;100279.00;5016423;28;20265;-74
2022/12/30 08:35:22;;;;;;;11.65;3.70;;;;;;;8.36;100.00;100278.41;5002676;28;20195;-76
2022/12/30 08:37:48;;;;;;;4.03;2.95;;;;;;;8.28;100.00;100283.22;5014402;28;20711;-73
2022/12/30 08:40:15;;;;;;;5.32;3.55;;;;;;;8.05;100.00;100276.91;5013985;28;20210;-75
2022/12/30 08:42:42;;;;;;;8.73;3.80;;;;;;;7.96;100.00;100279.03;5015054;28;20226;-73
2022/12/30 08:45:10;;;;;;;8.02;3.63;;;;;;;8.08;100.00;100266.03;5015163;28;20206;-76
2022/12/30 08:47:37;;;;;;;7.43;3.28;;;;;;;8.01;100.00;100267.22;5014904;28;20401;-75
2022/12/30 08:50:04;;;;;;;6.72;3.25;;;;;;;8.09;100.00;100265.09;5013133;28;20201;-75
2022/12/30 08:52:31;;;;;;;5.95;2.85;;;;;;;8.17;100.00;100253.22;5014387;28;20231;-74
2022/12/30 08:54:57;;;;;;;11.05;3.28;;;;;;;8.23;100.00;100258.34;5014349;28;20210;-75
2022/12/30 08:57:24;;;;;;;8.60;2.80;;;;;;;8.18;100.00;100246.91;5014816;28;20198;-74
2022/12/30 08:59:50;;;;;;;10.75;3.05;;;;;;;8.13;100.00;100244.41;5014003;28;20214;-75
2022/12/30 09:02:18;;;;;;;5.88;3.20;;;;;;;8.40;100.00;100229.09;5019007;28;20225;-73
2022/12/30 09:04:45;;;;;;;6.50;2.67;;;;;;;8.65;100.00;100238.88;5019946;28;20297;-74
2022/12/30 09:07:11;;;;;;;7.22;2.30;;;;;;;8.92;100.00;100232.38;5023290;28;20207;-72
2022/12/30 09:09:39;;;;;;;5.35;2.60;;;;;;;9.55;100.00;100218.06;5025185;28;20266;-73
2022/12/30 09:12:05;;;;;;;5.53;2.88;;;;;;;9.99;100.00;100223.25;5012884;28;20223;-73
2022/12/30 09:14:32;;;;;;;6.43;2.25;;;;;;;9.99;100.00;100218.78;5002401;28;20245;-75
2022/12/30 09:16:58;;;;;;;6.95;3.17;;;;;;;9.88;100.00;100214.81;4995460;28;20586;-74
2022/12/30 09:19:26;;;;;;;6.28;2.20;;;;;;;9.91;100.00;100204.78;5001466;28;20206;-73
2022/12/30 09:21:53;;;;;;;5.55;2.40;;;;;;;9.77;100.00;100208.09;4998070;28;20197;-74
2022/12/30 09:24:20;;;;;;;7.30;3.10;;;;;;;10.02;100.00;100201.63;4994474;28;20191;-73
2022/12/30 09:26:46;;;;;;;9.02;2.65;;;;;;;10.19;100.00;100198.97;4995130;28;20231;-75
2022/12/30 09:29:15;;;;;;;5.13;2.17;;;;;;;9.94;100.00;100198.41;4996660;28;20198;-73
2022/12/30 09:31:41;;;;;;;7.88;3.00;;;;;;;9.90;100.00;100202.16;4995446;28;20219;-75
2022/12/30 09:34:08;;;;;;;7.03;3.15;;;;;;;10.05;100.00;100189.84;4998041;28;20195;-74
2022/12/30 09:36:36;;;;;;;6.32;3.17;;;;;;;10.06;100.00;100191.56;5013275;28;20610;-73
2022/12/30 09:39:02;;;;;;;6.85;2.58;;;;;;;10.26;100.00;100193.31;5001659;28;20230;-72
2022/12/30 09:44:36;;;;;;;4.65;2.50;;;;;;;10.54;100.00;100166.88;5001492;28;20226;-74
2022/12/30 09:47:11;;;;;;;4.13;2.35;;;;;;;10.73;100.00;100164.13;5015293;28;20197;-73
2022/12/30 09:49:42;;;;;;;66.15;50.63;;;;;;;11.02;100.00;100159.97;5014082;28;20236;-71
2022/12/30 09:52:18;;;;;;;49.63;34.13;;;;;;;11.34;100.00;100159.25;5013228;28;20231;-73
2022/12/30 09:54:51;;;;;;;6.32;3.42;;;;;;;11.69;100.00;100150.16;5012026;28;20198;-74
2022/12/30 09:57:32;;;;;;;4.55;2.75;;;;;;;11.62;100.00;100137.06;5007470;28;20213;-73
2022/12/30 10:00:03;;;;;;;6.28;3.03;;;;;;;11.76;100.00;100131.81;5013903;28;20214;-74
2022/12/30 10:02:35;;;;;;;5.55;2.90;;;;;;;11.78;100.00;100126.31;4999248;28;20219;-74
2022/12/30 10:05:01;;;;;;;3.60;2.17;;;;;;;12.22;100.00;100123.03;4993712;28;20183;-74
2022/12/30 10:07:36;;;;;;;6.25;2.80;;;;;;;11.95;100.00;100123.59;5006773;28;20194;-73
2022/12/30 10:10:07;;;;;;;6.55;2.30;;;;;;;12.73;100.00;100112.88;5023662;28;20186;-72
2022/12/30 10:12:50;;;;;;;3.80;2.30;;;;;;;12.85;100.00;100106.72;5025382;28;20222;-73
2022/12/30 10:15:30;;;;;;;2.65;1.92;;;;;;;13.54;100.00;100109.78;5030574;28;20198;-73
2022/12/30 10:18:15;;;;;;;3.50;1.88;;;;;;;13.82;100.00;100106.25;5013361;28;20190;-73
2022/12/30 10:20:54;;;;;;;3.03;1.70;;;;;;;13.77;100.00;100102.97;5008884;28;20207;-75
2022/12/30 10:23:38;;;;;;;3.78;2.10;;;;;;;14.03;100.00;100105.84;5011167;28;20218;-74
2022/12/30 10:26:12;;;;;;;4.10;1.77;;;;;;;14.87;100.00;100100.28;5009556;28;20195;-72
2022/12/30 10:28:45;;;;;;;3.17;1.70;;;;;;;14.48;100.00;100114.63;5001332;28;20241;-73
2022/12/30 10:31:18;;;;;;;5.78;1.50;;;;;;;14.05;100.00;100101.19;5016064;28;20220;-74
2022/12/30 10:33:47;;;;;;;2.78;1.50;;;;;;;13.21;100.00;100101.91;5013844;28;20692;-72
2022/12/30 10:36:17;;;;;;;2.58;1.20;;;;;;;12.62;100.00;100094.59;5014190;28;20206;-75
2022/12/30 10:38:45;;;;;;;7.32;2.00;;;;;;;12.16;100.00;100104.47;5012712;28;20217;-73
2022/12/30 10:41:26;;;;;;;2.92;1.20;;;;;;;11.69;100.00;100093.50;5016042;28;20190;-73
2022/12/30 10:44:05;;;;;;;3.45;1.58;;;;;;;11.45;100.00;100093.00;5021607;28;20313;-72
2022/12/30 10:47:02;;;;;;;4.30;1.40;;;;;;;11.17;100.00;100079.25;5019518;28;20199;-72
2022/12/30 10:49:52;;;;;;;3.65;1.38;;;;;;;10.86;100.00;100070.09;5019268;28;20656;-73
2022/12/30 10:52:19;;;;;;;2.35;1.23;;;;;;;11.01;100.00;100072.00;5025256;28;20226;-72
2022/12/30 10:54:48;;;;;;;2.67;1.13;;;;;;;10.89;100.00;100053.75;5029664;28;20219;-72
2022/12/30 10:57:19;;;;;;;2.90;1.10;;;;;;;11.34;100.00;100036.09;5028947;28;20202;-72
2022/12/30 10:59:48;;;;;;;2.53;1.10;;;;;;;11.52;100.00;100019.88;5029431;28;20218;-72
2022/12/30 11:02:18;;;;;;;3.35;1.23;;;;;;;11.60;100.00;100033.78;5022452;28;20700;-72
2022/12/30 11:04:45;;;;;;;3.30;1.20;;;;;;;10.89;100.00;100040.28;5024588;28;20212;-72
2022/12/30 11:07:13;;;;;;;2.50;1.05;;;;;;;11.15;100.00;100038.06;5024921;28;20195;-73
2022/12/30 11:09:40;;;;;;;4.80;1.20;;;;;;;11.10;100.00;100026.63;5024147;28;20217;-71
2022/12/30 11:15:17;;;;;;;6.32;2.78;;;;;;;11.32;100.00;100005.66;5024250;28;20205;-73
2022/12/30 11:17:47;;;;;;;2.90;1.00;;;;;;;11.02;100.00;100003.66;5017949;28;20587;-72
2022/12/30 11:20:32;;;;;;;3.42;1.52;;;;;;;11.18;100.00;100001.03;5015865;28;20194;-72
2022/12/30 11:23:01;;;;;;;3.17;1.08;;;;;;;11.26;100.00;99985.31;5016548;28;20215;-74
2022/12/30 11:25:33;;;;;;;1.80;0.80;;;;;;;11.02;100.00;99990.19;5016611;28;20194;-72
2022/12/30 11:28:04;;;;;;;2.65;0.77;;;;;;;11.08;100.00;99999.78;5015672;28;20810;-73
2022/12/30 11:30:34;;;;;;;2.17;0.88;;;;;;;10.81;100.00;100012.91;5016523;28;20213;-73
2022/12/30 11:33:05;;;;;;;1.85;0.90;;;;;;;10.69;100.00;100024.31;5016189;28;20234;-73
2022/12/30 11:35:37;;;;;;;2.50;0.88;;;;;;;10.67;100.00;100020.81;5021141;28;20203;-71
2022/12/30 11:38:07;;;;;;;2.05;0.80;;;;;;;10.30;100.00;100025.38;5023874;28;20197;-71
2022/12/30 11:40:35;;;;;;;2.33;1.10;;;;;;;10.23;100.00;100006.81;5023804;28;20259;-73
2022/12/30 11:43:13;;;;;;;1.58;0.70;;;;;;;10.32;100.00;100000.13;5022665;28;20225;-74
2022/12/30 11:45:50;;;;;;;3.13;1.33;;;;;;;10.24;100.00;99975.38;5017509;28;20285;-72
2022/12/30 11:48:24;;;;;;;2.17;0.80;;;;;;;10.18;100.00;99971.19;5014894;28;20195;-72
2022/12/30 11:50:53;;;;;;;1.55;0.90;;;;;;;10.17;100.00;99965.88;5023124;28;20206;-72
2022/12/30 11:53:20;;;;;;;4.63;1.10;;;;;;;10.07;100.00;99972.69;5002406;28;20226;-72
2022/12/30 11:55:52;;;;;;;1.90;0.90;;;;;;;10.14;100.00;99987.59;5019047;28;20206;-74
2022/12/30 11:58:20;;;;;;;1.90;1.15;;;;;;;10.08;100.00;99993.25;5020412;28;20199;-74
2022/12/30 12:00:56;;;;;;;3.25;1.02;;;;;;;10.00;100.00;99982.88;5021436;28;20203;-73
2022/12/30 12:03:24;;;;;;;2.40;0.80;;;;;;;10.03;100.00;99972.81;5018637;28;20222;-73
2022/12/30 12:06:04;;;;;;;3.00;1.38;;;;;;;10.09;100.00;99965.44;5018136;28;20203;-72
2022/12/30 12:08:34;;;;;;;3.10;1.10;;;;;;;10.08;100.00;99953.75;5010182;28;20191;-74
2022/12/30 12:11:03;;;;;;;13.02;9.63;;;;;;;10.33;100.00;99949.88;5016065;28;20586;-70
2022/12/30 12:13:38;;;;;;;5.05;2.50;;;;;;;10.31;100.00;99943.69;5013531;28;20218;-73
2022/12/30 12:16:06;;;;;;;3.30;0.93;;;;;;;10.22;100.00;99937.81;5015047;28;20187;-72
2022/12/30 12:18:38;;;;;;;3.60;1.45;;;;;;;10.10;100.00;99937.56;5015047;28;20317;-72
2022/12/30 12:21:12;;;;;;;2.03;0.98;;;;;;;10.00;100.00;99924.56;5016406;28;20656;-73
2022/12/30 12:23:47;;;;;;;4.72;1.35;;;;;;;10.10;100.00;99894.50;5014949;28;20805;-74
2022/12/30 12:26:19;;;;;;;4.32;0.98;;;;;;;10.12;100.00;99885.41;5002186;28;20683;-73
2022/12/30 12:28:49;;;;;;;3.20;1.00;;;;;;;9.98;100.00;99894.19;4997449;28;20214;-73
2022/12/30 12:31:41;;;;;;;2.20;0.80;;;;;;;10.05;100.00;99885.81;5020392;28;20179;-74
2022/12/30 12:34:18;;;;;;;2.28;0.90;;;;;;;10.01;100.00;99879.69;5014843;28;20194;-74